Latest Weather Observations for Cape Naturaliste

IDW60801

Issued at 6:03 pm WST Thursday 28 July 2016 (issued every 30 minutes, with the page automatically refreshed every 10 minutes)

About weather observations | Map of weather stations | Latest weather observations for WA | Other Formats
Station Details ID: 009519 Name: CAPE NATURALISTE Lat: -33.54 Lon: 115.02 Height: 109.0 m
Data from the previous 72 hours. | See also: Recent months at Cape Naturaliste
Date/Time
WST
Temp
°C
App
Temp
°C
Dew
Point
°C
Rel
Hum
%
Delta-T
°C
Wind Press
QNH
hPa
Press
MSL
hPa
Rain since
9am
mm
Dir  Spd
km/h
Gust
km/h
Spd
kts
Gust
kts
28/06:00pm 14.8 13.1 11.2 79 1.9 SE 11 13 6 7 1019.8 1019.7 0.0
28/05:30pm 15.5 13.8 11.3 76 2.3 SSW 11 17 6 9 1019.7 1019.6 0.0
28/05:00pm 16.7 14.4 11.8 73 2.7 SSW 15 19 8 10 1019.6 1019.5 0.0
28/04:30pm 17.6 15.5 12.5 72 2.8 SSW 15 22 8 12 1019.5 1019.4 0.0
28/04:00pm 17.6 14.7 12.3 71 2.9 SSW 19 26 10 14 1019.3 1019.2 0.0
28/03:30pm 18.4 16.5 13.1 71 3.0 SSW 15 20 8 11 1019.2 1019.1 0.0
28/03:00pm 17.0 15.1 11.9 72 2.8 SW 13 17 7 9 1019.5 1019.4 0.0
28/02:30pm 18.7 17.8 12.5 67 3.5 W 9 13 5 7 1019.4 1019.3 0.0
28/02:00pm 18.7 17.6 11.8 64 3.8 W 9 13 5 7 1019.4 1019.3 0.0
28/01:30pm 19.8 18.8 12.3 62 4.2 W 9 13 5 7 1019.6 1019.5 0.0
28/01:00pm 19.6 18.6 12.4 63 4.0 N 9 17 5 9 1019.8 1019.7 0.0
28/12:30pm 18.9 17.9 12.2 65 3.7 NW 9 13 5 7 1020.3 1020.2 0.0
28/12:00pm 19.9 18.2 12.4 62 4.2 WNW 13 17 7 9 1020.8 1020.8 0.0
28/11:30am 19.5 18.6 12.5 64 3.9 NNW 9 17 5 9 1021.2 1021.2 0.0
28/11:00am 19.3 19.2 13.9 71 3.1 NE 7 13 4 7 1021.5 1021.5 0.0
28/10:30am 17.5 16.7 13.0 75 2.5 ENE 9 11 5 6 1021.9 1021.9 0.0
28/10:00am 18.0 18.0 15.1 83 1.7 ESE 9 11 5 6 1022.0 1022.0 0.0
28/09:30am 15.7 15.0 13.2 85 1.4 SE 9 11 5 6 1022.1 1022.1 0.0
28/09:00am 15.7 15.4 13.4 86 1.3 SE 7 9 4 5 1021.9 1021.9 0.0
28/08:30am 13.9 12.8 11.8 87 1.1 SE 9 11 5 6 1021.8 1021.8 0.0
28/08:00am 13.7 12.5 11.6 87 1.1 ESE 9 11 5 6 1021.5 1021.5 0.0
28/07:30am 13.3 12.0 11.2 87 1.1 ESE 9 11 5 6 1021.5 1021.5 0.0
28/07:00am 13.1 11.7 11.0 87 1.1 ESE 9 11 5 6 1021.2 1021.2 0.0
28/06:30am 13.3 12.4 11.2 87 1.1 ESE 7 7 4 4 1021.2 1021.2 0.0
28/06:00am 13.0 11.7 11.1 88 1.0 SE 9 11 5 6 1021.1 1021.1 0.0
28/05:30am 12.9 10.8 11.0 88 1.0 ESE 13 13 7 7 1021.0 1021.0 0.0
28/05:00am 12.7 10.9 10.8 88 1.0 ESE 11 13 6 7 1021.1 1021.1 0.0
28/04:30am 12.5 10.6 10.6 88 1.0 E 11 13 6 7 1021.1 1021.1 0.0
28/04:00am 12.2 9.8 10.1 87 1.1 ESE 13 15 7 8 1021.1 1021.1 0.0
28/03:30am 11.9 9.8 9.8 87 1.1 ESE 11 15 6 8 1021.6 1021.6 0.0
28/03:00am 12.5 9.8 10.4 87 1.1 E 15 17 8 9 1021.4 1021.4 0.0
28/02:30am 12.3 9.5 10.0 86 1.2 ESE 15 17 8 9 1021.8 1021.8 0.0
28/02:00am 12.4 9.6 10.1 86 1.2 ESE 15 19 8 10 1022.1 1022.1 0.0
28/01:30am 12.5 9.8 10.2 86 1.2 ESE 15 17 8 9 1021.9 1021.9 0.0
28/01:00am 12.6 9.5 10.3 86 1.2 ESE 17 19 9 10 1021.7 1021.7 0.0
28/12:30am 12.4 9.6 10.1 86 1.2 ESE 15 19 8 10 1022.1 1022.1 0.0
28/12:00am 12.3 9.1 10.0 86 1.2 ESE 17 20 9 11 1022.1 1022.1 0.0
 
Date/Time
WST
Temp
°C
App
Temp
°C
Dew
Point
°C
Rel
Hum
%
Delta-T
°C
Wind Press
QNH
hPa
Press
MSL
hPa
Rain since
9am
mm
Dir  Spd
km/h
Gust
km/h
Spd
kts
Gust
kts
27/11:30pm 12.2 9.0 9.9 86 1.2 ESE 17 19 9 10 1022.5 1022.5 0.0
27/11:00pm 12.7 9.6 10.2 85 1.3 ESE 17 20 9 11 1022.8 1022.8 0.0
27/10:30pm 12.7 10.0 10.2 85 1.3 ESE 15 19 8 10 1023.1 1023.1 0.0
27/10:00pm 12.7 10.0 10.2 85 1.3 SE 15 17 8 9 1023.3 1023.3 0.0
27/09:30pm 12.3 9.5 9.9 85 1.2 SE 15 17 8 9 1023.5 1023.5 0.0
27/09:00pm 12.3 10.2 9.9 85 1.2 SE 11 15 6 8 1023.7 1023.7 0.0
27/08:30pm 12.3 9.9 9.9 85 1.2 SE 13 15 7 8 1023.8 1023.8 0.0
27/08:00pm 12.3 9.8 9.7 84 1.3 ESE 13 17 7 9 1023.6 1023.6 0.0
27/07:30pm 12.5 10.3 9.5 82 1.5 E 11 13 6 7 1023.7 1023.7 0.0
27/07:00pm 13.7 11.9 10.7 82 1.6 NNE 11 17 6 9 1023.6 1023.6 0.0
27/06:30pm 13.8 11.9 10.6 81 1.7 NNE 11 15 6 8 1023.4 1023.4 0.0
27/06:00pm 14.1 11.6 10.9 81 1.7 NE 15 19 8 10 1023.6 1023.6 0.0
27/05:30pm 14.1 11.5 10.7 80 1.8 NE 15 19 8 10 1023.4 1023.4 0.0
27/05:00pm 14.2 11.9 10.4 78 2.0 NE 13 17 7 9 1023.2 1023.2 0.0
27/04:30pm 14.6 12.3 10.6 77 2.1 NE 13 17 7 9 1023.2 1023.2 0.0
27/04:00pm 14.9 12.7 10.7 76 2.2 NE 13 17 7 9 1023.2 1023.2 0.0
27/03:30pm 14.9 11.9 10.5 75 2.3 NNE 17 20 9 11 1023.1 1023.1 0.0
27/03:00pm 15.2 12.1 10.4 73 2.5 NNE 17 20 9 11 1023.3 1023.3 0.0
27/02:30pm 16.4 13.1 10.9 70 3.0 NNE 19 22 10 12 1023.1 1023.1 0.0
27/02:00pm 16.0 12.9 10.3 69 3.0 NNE 17 24 9 13 1023.4 1023.4 0.0
27/01:30pm 16.6 13.0 10.7 68 3.2 NNE 20 24 11 13 1023.7 1023.7 0.0
27/01:00pm 16.4 12.8 10.7 69 3.0 NNE 20 24 11 13 1024.2 1024.2 0.0
27/12:30pm 16.1 12.7 10.6 70 2.9 NNE 19 22 10 12 1024.9 1024.9 0.0
27/12:00pm 16.2 14.0 12.2 77 2.2 ENE 15 20 8 11 1025.4 1025.4 0.0
27/11:30am 15.1 12.3 11.3 78 2.0 E 17 22 9 12 1025.9 1025.9 0.0
27/11:00am 15.1 12.0 11.7 80 1.8 ENE 19 22 10 12 1026.0 1026.0 0.0
27/10:30am 14.8 11.8 11.8 82 1.6 ENE 19 22 10 12 1026.6 1026.6 0.0
27/10:00am 14.9 11.9 12.4 85 1.4 ENE 20 26 11 14 1026.5 1026.5 0.0
27/09:30am 14.2 11.1 12.2 88 1.1 ENE 20 24 11 13 1026.7 1026.7 0.0
27/09:00am 13.6 11.1 12.2 91 0.8 E 17 26 9 14 1026.5 1026.5 0.2
27/08:30am 10.8 7.5 9.4 91 0.7 ESE 17 20 9 11 1026.0 1026.0 0.2
27/08:00am 10.8 7.4 9.2 90 0.8 ESE 17 19 9 10 1026.3 1026.3 0.2
27/07:30am 10.6 7.2 9.0 90 0.8 SE 17 20 9 11 1026.4 1026.4 0.2
27/07:00am 10.3 7.2 8.7 90 0.8 SE 15 17 8 9 1026.3 1026.3 0.2
27/06:30am 10.8 7.4 9.2 90 0.8 ESE 17 19 9 10 1026.6 1026.6 0.2
27/06:00am 10.9 7.9 9.2 89 0.8 ESE 15 15 8 8 1026.9 1026.9 0.2
27/05:30am 10.9 8.7 9.2 89 0.9 ESE 11 13 6 7 1027.1 1027.1 0.2
27/05:00am 10.6 8.7 8.9 89 0.8 SE 9 11 5 6 1026.8 1026.8 0.2
27/04:30am 10.7 8.7 8.8 88 0.9 ESE 9 11 5 6 1026.3 1026.3 0.2
27/04:00am 11.4 9.6 9.5 88 1.0 ESE 9 13 5 7 1026.7 1026.7 0.2
27/03:30am 11.7 9.2 9.8 88 1.0 SE 13 15 7 8 1026.8 1026.8 0.2
27/03:00am 11.8 9.4 9.9 88 1.0 ESE 13 15 7 8 1026.9 1026.9 0.2
27/02:30am 12.0 8.8 10.1 88 1.0 ESE 17 19 9 10 1026.9 1026.9 0.2
27/02:00am 12.0 9.2 9.9 87 1.1 ESE 15 17 8 9 1027.1 1027.1 0.2
27/01:30am 12.0 9.9 9.9 87 1.1 SE 11 13 6 7 1027.1 1027.1 0.2
27/01:00am 11.9 9.9 10.0 88 1.0 SE 11 11 6 6 1027.1 1027.1 0.2
27/12:30am 11.9 9.5 10.0 88 1.0 SE 13 15 7 8 1027.2 1027.2 0.2
27/12:00am 11.5 8.9 9.4 87 1.1 SE 13 15 7 8 1027.3 1027.3 0.2
 
Date/Time
WST
Temp
°C
App
Temp
°C
Dew
Point
°C
Rel
Hum
%
Delta-T
°C
Wind Press
QNH
hPa
Press
MSL
hPa
Rain since
9am
mm
Dir  Spd
km/h
Gust
km/h
Spd
kts
Gust
kts
26/11:30pm 11.4 8.8 9.3 87 1.1 SSE 13 15 7 8 1027.5 1027.5 0.2
26/11:00pm 11.8 9.3 9.7 87 1.1 SSE 13 17 7 9 1027.6 1027.6 0.2
26/10:30pm 11.9 9.4 9.8 87 1.1 SSE 13 17 7 9 1027.6 1027.6 0.2
26/10:00pm 12.3 10.3 10.2 87 1.1 SSE 11 13 6 7 1027.8 1027.8 0.2
26/09:30pm 12.1 10.0 9.8 86 1.2 SSE 11 13 6 7 1028.1 1028.1 0.2
26/09:00pm 12.4 10.4 10.1 86 1.2 SSE 11 13 6 7 1028.3 1028.3 0.2
26/08:30pm 12.5 10.9 10.2 86 1.2 S 9 13 5 7 1028.3 1028.3 0.2
26/08:00pm 12.3 11.0 9.9 85 1.2 S 7 9 4 5 1028.2 1028.2 0.2
26/07:30pm 12.4 11.3 9.8 84 1.3 SSW 6 9 3 5 1027.9 1027.9 0.2
26/07:00pm 12.4 11.1 9.8 84 1.3 SSW 7 7 4 4 1027.8 1027.8 0.2
26/06:30pm 13.3 11.0 10.3 82 1.6 S 13 20 7 11 1027.6 1027.6 0.0
26/06:00pm 13.3 11.3 10.1 81 1.7 SSW 11 17 6 9 1027.4 1027.4 0.0
26/05:30pm 13.6 11.6 10.0 79 1.9 SW 11 13 6 7 1027.2 1027.2 0.0
26/05:00pm 14.1 11.7 10.1 77 2.1 SSW 13 19 7 10 1027.0 1027.0 0.0
26/04:30pm 15.3 13.7 10.1 71 2.7 SSW 9 13 5 7 1027.1 1027.1 0.0
26/04:00pm 16.1 13.6 11.1 72 2.7 SW 15 22 8 12 1027.1 1027.1 0.0
26/03:30pm 15.6 12.3 9.5 67 3.2 SW 17 24 9 13 1026.9 1026.9 0.0
26/03:00pm 16.8 14.4 10.2 65 3.5 SW 13 19 7 10 1026.9 1026.9 0.0
26/02:30pm 16.7 13.3 10.5 67 3.3 SSW 19 24 10 13 1026.9 1026.9 0.0
26/02:00pm 16.1 13.6 9.8 66 3.3 SW 13 20 7 11 1026.9 1026.9 0.0
26/01:30pm 17.7 14.9 10.1 61 4.1 SW 15 20 8 11 1026.9 1026.9 0.0
26/01:00pm 16.3 12.9 9.0 62 3.8 SW 17 20 9 11 1027.3 1027.3 0.0
26/12:30pm 16.3 13.2 8.8 61 3.9 SW 15 20 8 11 1027.6 1027.6 0.0
26/12:00pm 17.4 14.0 9.1 58 4.3 SSW 17 26 9 14 1028.0 1028.0 0.0
26/11:30am 15.9 11.9 8.2 60 3.9 SW 19 24 10 13 1028.3 1028.3 0.0
26/11:00am 16.0 12.2 9.0 63 3.6 SW 19 24 10 13 1028.6 1028.6 0.0
26/10:30am 16.2 12.8 9.2 63 3.6 SW 17 22 9 12 1028.7 1028.7 0.0
26/10:00am 15.4 12.3 8.9 65 3.3 SW 15 20 8 11 1028.7 1028.7 0.0
26/09:30am 15.1 11.6 8.6 65 3.3 SW 17 20 9 11 1028.4 1028.5 0.0
26/09:00am 14.2 10.9 8.2 67 3.0 SW 15 20 8 11 1028.2 1028.2 0.2
26/08:30am 14.2 10.6 8.2 67 3.0 SSW 17 24 9 13 1027.8 1027.8 0.2
26/08:00am 13.8 10.1 8.0 68 2.9 SSW 17 24 9 13 1027.6 1027.6 0.2
26/07:30am 13.9 10.0 8.7 71 2.6 SW 19 26 10 14 1027.4 1027.4 0.2
26/07:00am 13.4 9.4 8.3 71 2.5 SW 19 24 10 13 1027.2 1027.2 0.2
26/06:30am 13.5 9.4 8.6 72 2.5 SW 20 28 11 15 1027.0 1027.0 0.2
26/06:00am 13.2 9.0 8.3 72 2.4 SSW 20 28 11 15 1026.9 1026.9 0.2
26/05:30am 13.5 9.3 8.1 70 2.7 SSW 20 26 11 14 1026.7 1026.7 0.2
26/05:00am 13.8 9.4 7.3 65 3.2 SW 20 26 11 14 1026.7 1026.7 0.2
26/04:30am 13.5 9.0 7.1 65 3.1 SW 20 30 11 16 1026.8 1026.8 0.2
26/04:00am 13.8 9.4 7.6 66 3.0 SW 20 30 11 16 1026.7 1026.7 0.2
26/03:30am 13.8 9.2 8.0 68 2.9 SW 22 32 12 17 1026.7 1026.7 0.2
26/03:00am 13.5 8.7 7.5 67 2.9 SW 22 30 12 16 1026.7 1026.7 0.2
26/02:30am 13.5 9.1 7.3 66 3.0 SW 20 30 11 16 1026.7 1026.7 0.2
26/02:00am 13.5 9.2 7.7 68 2.9 SW 20 32 11 17 1026.7 1026.7 0.2
26/01:30am 13.4 8.5 8.3 71 2.6 SW 24 35 13 19 1026.7 1026.7 0.2
26/01:00am 13.5 9.0 8.6 72 2.5 SW 22 30 12 16 1026.9 1026.9 0.2
26/12:30am 13.9 9.0 8.5 70 2.7 SW 24 33 13 18 1026.8 1026.8 0.2
26/12:00am 14.0 9.9 8.6 70 2.7 SW 20 35 11 19 1027.1 1027.1 0.2
 
Date/Time
WST
Temp
°C
App
Temp
°C
Dew
Point
°C
Rel
Hum
%
Delta-T
°C
Wind Press
QNH
hPa
Press
MSL
hPa
Rain since
9am
mm
Dir  Spd
km/h
Gust
km/h
Spd
kts
Gust
kts
25/11:30pm 14.3 10.2 8.5 68 2.9 SW 20 30 11 16 1027.4 1027.4 0.2
25/11:00pm 13.5 8.3 7.1 65 3.1 SW 24 30 13 16 1027.4 1027.4 0.2
25/10:30pm 13.5 8.0 7.5 67 3.0 SW 26 33 14 18 1027.4 1027.4 0.2
25/10:00pm 13.4 9.5 9.5 77 2.0 SW 20 32 11 17 1027.4 1027.4 0.2
25/09:30pm 13.4 10.3 10.4 82 1.6 SW 17 22 9 12 1027.9 1027.9 0.2
25/09:00pm 12.7 9.4 9.7 82 1.5 SW 17 24 9 13 1027.7 1027.7 0.2
25/08:30pm 13.5 8.5 9.7 78 2.0 SW 26 41 14 22 1027.6 1027.6 0.2
25/08:00pm 14.0 9.3 9.4 74 2.3 SW 24 32 13 17 1027.6 1027.6 0.2
25/07:30pm 13.4 9.7 9.5 77 2.0 WSW 19 24 10 13 1027.0 1027.0 0.2
25/07:00pm 12.7 9.5 8.6 76 2.0 WSW 15 20 8 11 1026.6 1026.6 0.2
25/06:30pm 12.9 9.7 8.6 75 2.2 SW 15 20 8 11 1026.6 1026.6 0.2

Other Formats:

Comma delimited format used in spreadsheet applications
http://www.bom.gov.au/fwo/IDW60801/IDW60801.94600.axf

JavaScript Object Notation format (JSON) in row-major order
http://www.bom.gov.au/fwo/IDW60801/IDW60801.94600.json